Latest Weather Observations for Narrandera Airport

IDN60801

Issued at 7:32 pm EST Wednesday 26 April 2017 (issued every 30 minutes, with the page automatically refreshed every 10 minutes)

About weather observations | Map of weather stations | Latest weather observations for NSW | Other Formats
Station Details ID: 074148 Name: NARRANDERA AIRPORT AWS Lat: -34.70 Lon: 146.51 Height: 145.0 m
Data from the previous 72 hours. | See also: Recent months at Narrandera Airport
Date/Time
EST
Temp
°C
App
Temp
°C
Dew
Point
°C
Rel
Hum
%
Delta-T
°C
Wind Press
QNH
hPa
Press
MSL
hPa
Rain since
9am
mm
Dir  Spd
km/h
Gust
km/h
Spd
kts
Gust
kts
26/07:30pm 10.5 5.3 3.8 63 3.0 SW 20 30 11 16 1016.4 1016.1 2.0
26/07:00pm 10.9 4.9 3.5 60 3.3 SW 24 35 13 19 1015.8 1015.5 2.0
26/06:30pm 11.5 5.5 3.5 58 3.6 SW 24 33 13 18 1015.1 1014.8 2.0
26/06:00pm 12.2 5.5 3.7 56 3.8 SW 28 46 15 25 1014.5 1014.2 2.0
26/05:49pm 12.5 6.0 4.5 58 3.7 SW 28 48 15 26 1014.0 1013.7 2.0
26/05:30pm 12.7 7.0 4.7 58 3.7 SW 24 37 13 20 1013.5 1013.1 2.0
26/05:00pm 13.3 5.4 4.5 55 4.1 SW 35 50 19 27 1012.9 1012.5 2.0
26/04:32pm 14.2 7.8 5.0 54 4.3 SW 28 46 15 25 1012.2 1011.9 2.0
26/04:30pm 14.3 7.7 6.2 58 3.9 SW 30 46 16 25 1012.1 1011.8 2.0
26/04:07pm 14.6 8.4 6.2 57 4.1 SW 28 50 15 27 1011.6 1011.3 2.0
26/04:00pm 14.6 9.2 6.4 58 4.0 SW 24 43 13 23 1011.5 1011.2 2.0
26/03:31pm 14.3 7.3 5.9 57 4.0 SW 32 50 17 27 1011.3 1011.0 2.0
26/03:30pm 14.3 7.1 5.9 57 4.0 SW 33 50 18 27 1011.3 1011.0 2.0
26/03:00pm 13.8 6.9 6.4 61 3.6 SW 32 54 17 29 1010.9 1010.6 2.0
26/02:41pm 14.0 7.3 7.5 65 3.2 SW 32 50 17 27 1010.6 1010.3 2.0
26/02:30pm 13.5 7.2 7.3 66 3.0 SW 30 44 16 24 1010.3 1010.0 2.0
26/02:00pm 13.2 6.5 7.4 68 2.9 SW 32 50 17 27 1009.9 1009.6 2.0
26/01:30pm 13.7 7.5 9.4 75 2.2 SW 32 50 17 27 1009.6 1009.3 2.0
26/01:18pm 13.3 7.1 7.7 69 2.8 SW 30 50 16 27 1009.5 1009.2 2.0
26/01:00pm 12.8 7.6 8.7 76 2.1 SW 26 35 14 19 1009.4 1009.1 2.0
26/12:30pm 11.6 5.5 8.1 79 1.7 SW 30 43 16 23 1009.5 1009.2 2.0
26/12:00pm 12.7 8.1 8.0 73 2.3 WSW 22 39 12 21 1009.2 1008.9 1.0
26/11:30am 12.8 8.9 9.4 80 1.7 WSW 20 33 11 18 1009.4 1009.1 1.0
26/11:00am 11.5 8.8 10.2 92 0.7 W 15 20 8 11 1009.5 1009.2 1.0
26/10:30am 10.1 6.6 8.7 91 0.7 WSW 17 24 9 13 1009.9 1009.6 0.8
26/10:00am 10.3 6.7 8.2 87 1.0 WSW 17 26 9 14 1009.4 1009.1 0.8
26/09:30am 10.2 7.0 8.5 89 0.8 WSW 15 20 8 11 1009.6 1009.3 0.8
26/09:00am 10.7 6.3 7.6 81 1.5 WSW 20 35 11 19 1009.3 1009.0 10.0
26/08:30am 10.6 4.4 7.8 83 1.4 SW 30 59 16 32 1009.0 1008.7 10.0
26/08:22am 11.3 3.9 8.5 83 1.4 W 37 59 20 32 1009.0 1008.7 10.0
26/08:16am 12.3 7.3 10.9 91 0.7 W 28 48 15 26 1008.3 1008.0 10.0
26/08:00am 13.0 9.0 11.7 92 0.7 W 24 33 13 18 1008.1 1007.8 7.4
26/07:30am 13.1 11.0 12.5 96 0.3 NW 15 20 8 11 1007.9 1007.6 7.0
26/07:00am 12.8 11.1 12.5 98 0.2 WNW 13 17 7 9 1007.8 1007.5 7.0
26/06:30am 12.6 10.4 12.1 97 0.3 WNW 15 20 8 11 1007.8 1007.5 7.0
26/06:00am 12.7 9.7 12.4 98 0.2 NW 20 24 11 13 1007.9 1007.6 7.0
26/05:30am 12.8 11.1 12.5 98 0.2 NW 13 17 7 9 1007.6 1007.2 7.0
26/05:00am 13.0 11.0 12.7 98 0.2 NW 15 20 8 11 1007.8 1007.5 7.0
26/04:30am 13.1 11.9 12.9 99 0.1 W 11 17 6 9 1008.0 1007.7 7.0
26/04:00am 13.0 10.6 12.8 99 0.1 NW 17 20 9 11 1008.2 1007.9 2.6
26/03:30am 12.7 10.2 12.4 98 0.2 NNW 17 19 9 10 1008.1 1007.8 2.6
26/03:00am 12.8 11.1 12.3 97 0.3 NNW 13 15 7 8 1008.5 1008.2 2.6
26/02:30am 13.2 11.5 12.6 96 0.3 NNW 13 15 7 8 1008.8 1008.5 2.6
26/02:00am 13.6 12.5 13.0 96 0.3 NW 11 13 6 7 1008.8 1008.5 2.6
26/01:30am 13.9 13.0 12.6 92 0.7 NNW 9 15 5 8 1009.0 1008.7 2.6
26/01:00am 14.6 14.1 12.5 87 1.2 WSW 7 11 4 6 1009.2 1008.9 2.6
26/12:30am 15.1 12.7 12.8 86 1.3 WNW 17 26 9 14 1009.4 1009.1 2.2
26/12:00am 13.7 13.0 13.1 96 0.3 NW 9 15 5 8 1009.7 1009.4 2.2
 
Date/Time
EST
Temp
°C
App
Temp
°C
Dew
Point
°C
Rel
Hum
%
Delta-T
°C
Wind Press
QNH
hPa
Press
MSL
hPa
Rain since
9am
mm
Dir  Spd
km/h
Gust
km/h
Spd
kts
Gust
kts
25/11:30pm 13.1 12.4 12.0 93 0.6 NNW 7 9 4 5 1009.7 1009.4 2.2
25/11:00pm 13.6 12.6 12.2 91 0.8 NNW 9 11 5 6 1009.8 1009.5 2.2
25/10:30pm 14.5 13.1 12.2 86 1.3 WNW 11 15 6 8 1010.0 1009.7 2.2
25/10:00pm 15.6 14.1 13.1 85 1.4 WNW 13 17 7 9 1009.8 1009.5 2.2
25/09:30pm 15.4 14.2 12.7 84 1.5 WNW 11 15 6 8 1009.9 1009.6 2.2
25/09:00pm 15.6 14.4 12.7 83 1.6 WNW 11 15 6 8 1010.0 1009.7 2.2
25/08:30pm 16.0 14.7 12.6 80 1.9 WNW 11 13 6 7 1010.0 1009.7 2.2
25/08:00pm 17.2 15.6 12.7 75 2.5 W 13 17 7 9 1009.9 1009.6 2.2
25/07:30pm 17.7 15.7 12.8 73 2.8 W 15 19 8 10 1009.9 1009.6 2.2
25/07:00pm 17.3 15.3 12.8 75 2.5 WNW 15 19 8 10 1009.6 1009.3 2.2
25/06:30pm 17.9 17.1 12.8 72 2.9 WNW 9 13 5 7 1009.3 1009.0 2.2
25/06:00pm 18.3 17.0 12.5 69 3.3 WNW 11 15 6 8 1009.1 1008.8 2.2
25/05:30pm 19.6 17.1 12.4 63 4.1 WNW 17 22 9 12 1008.8 1008.5 2.2
25/05:00pm 20.3 17.5 13.3 64 4.0 W 20 32 11 17 1008.7 1008.4 2.2
25/04:30pm 21.3 19.2 13.7 62 4.4 WNW 17 28 9 15 1008.5 1008.2 2.2
25/04:00pm 21.1 18.6 14.0 64 4.2 WNW 20 32 11 17 1008.5 1008.2 2.2
25/03:30pm 20.2 16.9 13.9 67 3.7 WNW 24 35 13 19 1008.5 1008.2 2.2
25/03:00pm 20.2 18.0 14.3 69 3.5 WNW 19 24 10 13 1008.5 1008.2 2.2
25/02:30pm 20.1 16.6 14.5 70 3.3 W 26 35 14 19 1008.6 1008.3 2.2
25/02:00pm 20.8 18.4 15.4 71 3.2 W 22 30 12 16 1008.8 1008.5 2.2
25/01:30pm 18.9 17.4 16.3 85 1.6 W 19 24 10 13 1009.2 1008.9 2.2
25/01:00pm 19.1 16.4 16.7 86 1.5 WNW 26 35 14 19 1009.1 1008.8 2.2
25/12:30pm 18.9 17.4 17.7 93 0.7 NW 22 30 12 16 1009.4 1009.1 2.2
25/12:00pm 17.8 17.3 17.0 95 0.5 WNW 15 26 8 14 1010.0 1009.7 1.0
25/11:30am 18.0 16.4 16.5 91 0.9 NW 20 28 11 15 1010.1 1009.8 0.2
25/11:00am 17.7 15.9 16.9 95 0.5 NW 22 32 12 17 1010.6 1010.3 0.2
25/10:30am 17.6 16.0 16.5 93 0.7 NW 20 28 11 15 1010.8 1010.5 0.2
25/10:00am 17.5 14.9 15.8 90 1.0 NW 24 32 13 17 1010.9 1010.6 0.2
25/09:30am 17.2 14.0 16.2 94 0.6 WNW 28 37 15 20 1010.7 1010.4 0.2
25/09:05am 17.2 13.3 16.9 98 0.2 NNW 33 54 18 29 1010.4 1010.1 0.0
25/09:00am 17.0 13.2 16.7 98 0.2 NNW 32 39 17 21 1010.3 1010.0 9.0
25/08:46am 17.1 13.9 16.3 95 0.5 N 28 43 15 23 1010.2 1009.9 8.6
25/08:30am 16.6 15.1 16.3 98 0.2 N 19 24 10 13 1010.3 1010.0 8.6
25/08:00am 16.4 15.0 15.6 95 0.5 N 17 22 9 12 1010.7 1010.4 6.6
25/07:30am 16.3 17.0 15.5 95 0.5 NNE 6 7 3 4 1010.9 1010.6 5.0
25/07:00am 16.5 17.0 15.0 91 0.9 NNW 6 9 3 5 1011.0 1010.7 3.0
25/06:30am 16.7 16.4 14.5 87 1.3 WNW 9 15 5 8 1011.0 1010.7 2.2
25/06:00am 18.0 17.5 13.9 77 2.4 WSW 9 15 5 8 1010.8 1010.5 0.6
25/05:30am 18.5 16.4 13.6 73 2.8 WNW 17 24 9 13 1010.8 1010.5 0.4
25/05:00am 18.6 16.0 13.7 73 2.8 N 20 26 11 14 1010.8 1010.5 0.4
25/04:30am 18.9 15.8 13.5 71 3.1 N 22 32 12 17 1010.7 1010.4 0.4
25/04:00am 18.8 16.7 13.6 72 3.0 N 17 22 9 12 1011.0 1010.7 0.4
25/03:30am 18.5 17.7 14.0 75 2.6 N 11 17 6 9 1011.3 1011.0 0.4
25/03:00am 18.6 17.8 14.1 75 2.6 NNW 11 19 6 10 1011.8 1011.5 0.4
25/02:30am 18.3 16.5 14.4 78 2.3 NNE 17 24 9 13 1012.1 1011.8 0.4
25/02:00am 19.1 18.9 13.7 71 3.1 N 7 11 4 6 1012.7 1012.3 0.2
25/01:30am 19.4 18.5 13.6 69 3.3 N 11 15 6 8 1013.1 1012.7 0.2
25/01:00am 19.4 17.1 14.0 71 3.1 N 19 24 10 13 1013.5 1013.1 0.0
25/12:30am 20.0 16.9 13.5 66 3.7 NNE 22 28 12 15 1013.8 1013.5 0.0
25/12:00am 20.5 17.6 13.0 62 4.3 N 20 28 11 15 1014.3 1014.0 0.0
 
Date/Time
EST
Temp
°C
App
Temp
°C
Dew
Point
°C
Rel
Hum
%
Delta-T
°C
Wind Press
QNH
hPa
Press
MSL
hPa
Rain since
9am
mm
Dir  Spd
km/h
Gust
km/h
Spd
kts
Gust
kts
24/11:30pm 20.5 17.3 13.0 62 4.3 N 22 30 12 16 1014.8 1014.5 0.0
24/11:00pm 20.1 18.6 13.1 64 4.0 NNE 13 17 7 9 1015.2 1014.9 0.0
24/10:30pm 19.8 18.2 12.8 64 4.0 NNE 13 17 7 9 1015.5 1015.2 0.0
24/10:00pm 19.7 18.7 13.4 67 3.6 NNE 11 15 6 8 1015.9 1015.6 0.0
24/09:30pm 19.8 18.4 13.3 66 3.7 NNE 13 15 7 8 1016.1 1015.8 0.0
24/09:00pm 19.7 18.2 13.2 66 3.7 NNE 13 15 7 8 1016.2 1015.9 0.0
24/08:30pm 20.5 18.4 13.5 64 4.0 NNE 17 19 9 10 1016.3 1016.0 0.0
24/08:00pm 20.6 18.5 13.6 64 4.0 N 17 20 9 11 1016.3 1016.0 0.0
24/07:30pm 20.6 19.3 13.6 64 4.0 N 13 15 7 8 1016.4 1016.1 0.0
24/07:00pm 21.3 19.1 12.2 56 5.1 N 15 17 8 9 1016.6 1016.3 0.0
24/06:30pm 22.3 19.5 11.4 50 6.1 N 17 22 9 12 1016.5 1016.2 0.0
24/06:00pm 22.6 19.2 11.4 49 6.3 N 20 26 11 14 1016.3 1016.0 0.0
24/05:30pm 23.2 19.7 10.9 46 6.9 N 20 26 11 14 1016.0 1015.7 0.0
24/05:00pm 24.4 20.1 10.7 42 7.7 N 24 32 13 17 1016.0 1015.7 0.0
24/04:30pm 24.9 20.1 10.4 40 8.1 NNW 26 35 14 19 1016.0 1015.7 0.0
24/04:00pm 25.6 21.9 9.4 36 8.9 N 19 30 10 16 1015.9 1015.6 0.0
24/03:30pm 26.0 22.4 9.8 36 9.0 N 19 24 10 13 1016.1 1015.8 0.0
24/03:00pm 26.3 23.1 10.0 36 9.1 NW 17 24 9 13 1016.3 1016.0 0.0
24/02:30pm 26.1 22.5 9.9 36 9.0 N 19 26 10 14 1016.5 1016.2 0.0
24/02:00pm 26.2 23.0 10.0 36 9.0 N 17 26 9 14 1016.8 1016.5 0.0
24/01:30pm 26.0 23.6 10.2 37 8.8 N 13 22 7 12 1017.1 1016.8 0.0
24/01:00pm 26.6 23.4 9.9 35 9.3 N 17 28 9 15 1017.6 1017.3 0.0
24/12:30pm 25.6 24.6 10.2 38 8.6 NE 6 11 3 6 1018.3 1018.0 0.0
24/12:00pm 26.2 24.4 10.8 38 8.7 NNE 11 20 6 11 1018.9 1018.6 0.0
24/11:30am 25.8 23.7 11.2 40 8.3 N 13 19 7 10 1019.6 1019.3 0.0
24/11:00am 25.3 23.7 11.5 42 7.8 NE 11 19 6 10 1020.2 1019.9 0.0
24/10:30am 23.4 22.8 13.6 54 5.7 ENE 9 17 5 9 1020.8 1020.5 0.0
24/10:00am 22.8 21.8 13.3 55 5.5 ENE 11 15 6 8 1021.0 1020.7 0.0
24/09:30am 20.3 20.0 13.3 64 4.0 ENE 7 11 4 6 1021.3 1021.0 0.0
24/09:00am 18.6 17.8 12.8 69 3.3 ENE 9 13 5 7 1021.6 1021.3 0.0
24/08:30am 17.4 16.5 12.7 74 2.6 E 9 13 5 7 1021.6 1021.3 0.0
24/08:00am 16.2 16.0 13.5 84 1.5 E 7 9 4 5 1021.6 1021.3 0.0
24/07:30am 14.0 13.4 12.4 90 0.9 ESE 7 9 4 5 1021.4 1021.1 0.0
24/07:00am 13.5 12.1 12.2 92 0.7 ESE 11 13 6 7 1021.2 1020.9 0.0
24/06:30am 13.1 11.8 11.3 89 1.0 ESE 9 11 5 6 1021.0 1020.7 0.0
24/06:00am 13.4 12.2 11.5 88 1.0 ESE 9 11 5 6 1020.9 1020.6 0.0
24/05:30am 13.4 12.2 11.5 88 1.0 SE 9 11 5 6 1020.9 1020.6 0.0
24/05:00am 14.0 13.2 11.7 86 1.2 ESE 7 9 4 5 1020.7 1020.4 0.0
24/04:30am 13.8 12.6 11.5 86 1.2 ESE 9 11 5 6 1020.7 1020.4 0.0
24/04:00am 14.8 14.0 11.8 82 1.6 ESE 7 9 4 5 1020.4 1020.1 0.0
24/03:30am 14.6 14.3 12.6 88 1.1 ESE 6 9 3 5 1020.4 1020.1 0.0
24/03:00am 13.4 12.8 11.8 90 0.9 ESE 6 9 3 5 1020.6 1020.3 0.0
24/02:30am 14.2 13.7 12.1 87 1.1 ESE 6 7 3 4 1020.8 1020.5 0.0
24/02:00am 14.2 14.0 11.7 85 1.3 ESE 4 7 2 4 1021.0 1020.7 0.0
24/01:30am 14.9 15.1 12.0 83 1.6 ESE 2 7 1 4 1021.2 1020.9 0.0
24/01:00am 15.7 16.4 12.3 80 1.9 CALM 0 0 0 0 1021.3 1021.0 0.0
24/12:30am 16.7 16.4 12.8 78 2.2 SSE 6 7 3 4 1021.6 1021.3 0.0
24/12:00am 16.3 15.4 12.7 79 2.0 ESE 9 9 5 5 1021.8 1021.5 0.0
 
Date/Time
EST
Temp
°C
App
Temp
°C
Dew
Point
°C
Rel
Hum
%
Delta-T
°C
Wind Press
QNH
hPa
Press
MSL
hPa
Rain since
9am
mm
Dir  Spd
km/h
Gust
km/h
Spd
kts
Gust
kts
23/11:30pm 16.2 16.0 13.5 84 1.5 ESE 7 9 4 5 1022.0 1021.7 0.0
23/11:00pm 16.1 17.5 14.3 89 1.0 CALM 0 0 0 0 1022.3 1022.0 0.0
23/10:30pm 15.8 17.2 14.5 92 0.7 CALM 0 0 0 0 1022.5 1022.2 0.0
23/10:00pm 15.0 16.1 13.4 90 0.9 CALM 0 0 0 0 1022.6 1022.3 0.0
23/09:30pm 14.9 15.8 12.9 88 1.1 CALM 0 0 0 0 1022.9 1022.6 0.0
23/09:00pm 15.6 16.3 13.4 87 1.2 SSW 2 7 1 4 1022.8 1022.5 0.0
23/08:30pm 16.2 17.5 14.0 87 1.3 CALM 0 0 0 0 1022.6 1022.3 0.0
23/08:00pm 16.3 17.4 13.4 83 1.6 CALM 0 0 0 0 1022.3 1022.0 0.0

Other Formats:

Comma delimited format used in spreadsheet applications
http://www.bom.gov.au/fwo/IDN60801/IDN60801.95706.axf

JavaScript Object Notation format (JSON) in row-major order
http://www.bom.gov.au/fwo/IDN60801/IDN60801.95706.json